sensor_id;sensor_type;location;lat;lon;timestamp;P1;durP1;ratioP1;P2;durP2;ratioP2
46266;SDS011;31998;48.798;15.066;2023-04-08T00:01:21;55.73;;;29.97;;
46266;SDS011;31998;48.798;15.066;2023-04-08T00:03:46;63.27;;;32.80;;
46266;SDS011;31998;48.798;15.066;2023-04-08T00:06:11;65.20;;;32.23;;
46266;SDS011;31998;48.798;15.066;2023-04-08T00:08:37;59.93;;;31.33;;
46266;SDS011;31998;48.798;15.066;2023-04-08T00:11:02;69.60;;;35.30;;
46266;SDS011;31998;48.798;15.066;2023-04-08T00:13:27;80.00;;;35.40;;
46266;SDS011;31998;48.798;15.066;2023-04-08T00:15:53;67.27;;;33.73;;
46266;SDS011;31998;48.798;15.066;2023-04-08T00:18:18;71.90;;;37.10;;
46266;SDS011;31998;48.798;15.066;2023-04-08T00:20:43;68.43;;;35.20;;
46266;SDS011;31998;48.798;15.066;2023-04-08T00:23:08;76.13;;;36.90;;
46266;SDS011;31998;48.798;15.066;2023-04-08T00:25:34;68.23;;;37.43;;
46266;SDS011;31998;48.798;15.066;2023-04-08T00:27:59;66.77;;;35.00;;
46266;SDS011;31998;48.798;15.066;2023-04-08T00:30:24;71.33;;;34.90;;
46266;SDS011;31998;48.798;15.066;2023-04-08T00:32:52;71.80;;;35.20;;
46266;SDS011;31998;48.798;15.066;2023-04-08T00:35:17;81.07;;;35.97;;
46266;SDS011;31998;48.798;15.066;2023-04-08T00:37:42;63.33;;;34.73;;
46266;SDS011;31998;48.798;15.066;2023-04-08T00:40:07;65.63;;;34.90;;
46266;SDS011;31998;48.798;15.066;2023-04-08T00:42:33;69.23;;;34.27;;
46266;SDS011;31998;48.798;15.066;2023-04-08T00:44:58;68.90;;;34.00;;
46266;SDS011;31998;48.798;15.066;2023-04-08T00:47:23;66.63;;;34.20;;
46266;SDS011;31998;48.798;15.066;2023-04-08T00:49:48;58.57;;;31.57;;
46266;SDS011;31998;48.798;15.066;2023-04-08T00:52:14;63.10;;;32.20;;
46266;SDS011;31998;48.798;15.066;2023-04-08T00:54:40;65.50;;;31.90;;
46266;SDS011;31998;48.798;15.066;2023-04-08T00:57:05;74.07;;;34.37;;
46266;SDS011;31998;48.798;15.066;2023-04-08T00:59:30;57.83;;;30.03;;
46266;SDS011;31998;48.798;15.066;2023-04-08T01:07:14;54.23;;;27.43;;
46266;SDS011;31998;48.798;15.066;2023-04-08T01:09:44;53.03;;;27.87;;
46266;SDS011;31998;48.798;15.066;2023-04-08T01:12:09;59.80;;;27.87;;
46266;SDS011;31998;48.798;15.066;2023-04-08T01:14:38;68.37;;;29.10;;
46266;SDS011;31998;48.798;15.066;2023-04-08T01:17:06;58.17;;;28.20;;
46266;SDS011;31998;48.798;15.066;2023-04-08T01:19:33;45.20;;;26.30;;
46266;SDS011;31998;48.798;15.066;2023-04-08T01:22:04;56.73;;;27.40;;
46266;SDS011;31998;48.798;15.066;2023-04-08T01:24:35;50.73;;;26.33;;
46266;SDS011;31998;48.798;15.066;2023-04-08T01:27:01;45.17;;;25.57;;
46266;SDS011;31998;48.798;15.066;2023-04-08T01:29:27;45.70;;;26.40;;
46266;SDS011;31998;48.798;15.066;2023-04-08T01:31:53;41.23;;;23.73;;
46266;SDS011;31998;48.798;15.066;2023-04-08T01:34:19;48.77;;;25.33;;
46266;SDS011;31998;48.798;15.066;2023-04-08T01:36:45;43.93;;;25.77;;
46266;SDS011;31998;48.798;15.066;2023-04-08T01:39:10;39.97;;;22.20;;
46266;SDS011;31998;48.798;15.066;2023-04-08T01:41:36;44.40;;;23.13;;
46266;SDS011;31998;48.798;15.066;2023-04-08T01:44:02;38.63;;;22.57;;
46266;SDS011;31998;48.798;15.066;2023-04-08T01:46:28;37.37;;;21.47;;
46266;SDS011;31998;48.798;15.066;2023-04-08T01:48:53;30.07;;;19.93;;
46266;SDS011;31998;48.798;15.066;2023-04-08T01:51:19;28.70;;;18.23;;
46266;SDS011;31998;48.798;15.066;2023-04-08T01:53:45;34.17;;;16.83;;
46266;SDS011;31998;48.798;15.066;2023-04-08T01:56:11;24.43;;;17.10;;
46266;SDS011;31998;48.798;15.066;2023-04-08T01:58:41;26.63;;;16.50;;
46266;SDS011;31998;48.798;15.066;2023-04-08T02:01:09;24.40;;;15.63;;
46266;SDS011;31998;48.798;15.066;2023-04-08T02:03:35;20.03;;;15.77;;
46266;SDS011;31998;48.798;15.066;2023-04-08T02:06:01;22.37;;;15.30;;
46266;SDS011;31998;48.798;15.066;2023-04-08T02:08:26;22.27;;;15.53;;
46266;SDS011;31998;48.798;15.066;2023-04-08T02:10:51;24.33;;;15.90;;
46266;SDS011;31998;48.798;15.066;2023-04-08T02:13:16;21.73;;;16.07;;
46266;SDS011;31998;48.798;15.066;2023-04-08T02:15:43;19.10;;;14.43;;
46266;SDS011;31998;48.798;15.066;2023-04-08T02:18:21;18.07;;;14.17;;
46266;SDS011;31998;48.798;15.066;2023-04-08T02:20:53;20.10;;;15.30;;
46266;SDS011;31998;48.798;15.066;2023-04-08T02:23:22;19.10;;;14.70;;
46266;SDS011;31998;48.798;15.066;2023-04-08T02:25:48;20.97;;;15.23;;
46266;SDS011;31998;48.798;15.066;2023-04-08T02:28:14;23.47;;;17.10;;
46266;SDS011;31998;48.798;15.066;2023-04-08T02:30:42;31.17;;;16.93;;
46266;SDS011;31998;48.798;15.066;2023-04-08T02:33:08;22.13;;;16.07;;
46266;SDS011;31998;48.798;15.066;2023-04-08T02:35:35;20.87;;;15.63;;
46266;SDS011;31998;48.798;15.066;2023-04-08T02:38:00;22.03;;;15.50;;
46266;SDS011;31998;48.798;15.066;2023-04-08T02:40:29;17.90;;;14.40;;
46266;SDS011;31998;48.798;15.066;2023-04-08T02:42:55;18.10;;;12.97;;
46266;SDS011;31998;48.798;15.066;2023-04-08T02:45:21;30.00;;;14.97;;
46266;SDS011;31998;48.798;15.066;2023-04-08T02:47:46;19.93;;;14.17;;
46266;SDS011;31998;48.798;15.066;2023-04-08T02:50:11;20.97;;;14.77;;
46266;SDS011;31998;48.798;15.066;2023-04-08T02:52:36;22.00;;;14.27;;
46266;SDS011;31998;48.798;15.066;2023-04-08T02:55:02;21.37;;;13.93;;
46266;SDS011;31998;48.798;15.066;2023-04-08T02:57:30;23.43;;;14.10;;
46266;SDS011;31998;48.798;15.066;2023-04-08T02:59:55;16.53;;;12.30;;
46266;SDS011;31998;48.798;15.066;2023-04-08T03:02:21;16.73;;;13.07;;
46266;SDS011;31998;48.798;15.066;2023-04-08T03:04:46;15.73;;;13.03;;
46266;SDS011;31998;48.798;15.066;2023-04-08T03:07:11;14.60;;;13.00;;
46266;SDS011;31998;48.798;15.066;2023-04-08T03:09:36;18.30;;;13.70;;
46266;SDS011;31998;48.798;15.066;2023-04-08T03:12:01;16.80;;;12.50;;
46266;SDS011;31998;48.798;15.066;2023-04-08T03:14:27;14.83;;;12.53;;
46266;SDS011;31998;48.798;15.066;2023-04-08T03:16:52;19.30;;;13.57;;
46266;SDS011;31998;48.798;15.066;2023-04-08T03:19:17;18.97;;;13.33;;
46266;SDS011;31998;48.798;15.066;2023-04-08T03:21:43;18.43;;;13.13;;
46266;SDS011;31998;48.798;15.066;2023-04-08T03:24:08;17.23;;;13.87;;
46266;SDS011;31998;48.798;15.066;2023-04-08T03:26:33;19.27;;;14.80;;
46266;SDS011;31998;48.798;15.066;2023-04-08T03:28:58;18.63;;;13.53;;
46266;SDS011;31998;48.798;15.066;2023-04-08T03:31:24;20.23;;;15.53;;
46266;SDS011;31998;48.798;15.066;2023-04-08T03:33:49;21.67;;;14.57;;
46266;SDS011;31998;48.798;15.066;2023-04-08T03:36:15;23.10;;;15.70;;
46266;SDS011;31998;48.798;15.066;2023-04-08T03:38:40;30.80;;;16.23;;
46266;SDS011;31998;48.798;15.066;2023-04-08T03:41:05;23.03;;;16.87;;
46266;SDS011;31998;48.798;15.066;2023-04-08T03:43:30;21.80;;;16.30;;
46266;SDS011;31998;48.798;15.066;2023-04-08T03:45:56;23.00;;;15.60;;
46266;SDS011;31998;48.798;15.066;2023-04-08T03:48:22;28.37;;;18.57;;
46266;SDS011;31998;48.798;15.066;2023-04-08T03:50:47;29.30;;;18.10;;
46266;SDS011;31998;48.798;15.066;2023-04-08T03:53:12;28.40;;;18.33;;
46266;SDS011;31998;48.798;15.066;2023-04-08T03:55:37;33.00;;;19.63;;
46266;SDS011;31998;48.798;15.066;2023-04-08T03:58:06;34.10;;;20.40;;
46266;SDS011;31998;48.798;15.066;2023-04-08T04:00:31;32.03;;;20.00;;
46266;SDS011;31998;48.798;15.066;2023-04-08T04:02:56;33.57;;;20.97;;
46266;SDS011;31998;48.798;15.066;2023-04-08T04:05:21;44.40;;;24.00;;
46266;SDS011;31998;48.798;15.066;2023-04-08T04:07:47;43.33;;;23.40;;
46266;SDS011;31998;48.798;15.066;2023-04-08T04:10:12;53.37;;;26.27;;
46266;SDS011;31998;48.798;15.066;2023-04-08T04:12:37;47.00;;;24.50;;
46266;SDS011;31998;48.798;15.066;2023-04-08T04:15:03;47.80;;;23.17;;
46266;SDS011;31998;48.798;15.066;2023-04-08T04:17:28;46.43;;;24.30;;
46266;SDS011;31998;48.798;15.066;2023-04-08T04:19:53;59.40;;;24.23;;
46266;SDS011;31998;48.798;15.066;2023-04-08T04:22:19;45.57;;;23.43;;
46266;SDS011;31998;48.798;15.066;2023-04-08T04:24:47;65.50;;;27.03;;
46266;SDS011;31998;48.798;15.066;2023-04-08T04:27:13;57.63;;;25.40;;
46266;SDS011;31998;48.798;15.066;2023-04-08T04:29:39;51.00;;;25.47;;
46266;SDS011;31998;48.798;15.066;2023-04-08T04:32:04;63.10;;;27.93;;
46266;SDS011;31998;48.798;15.066;2023-04-08T04:34:30;51.93;;;26.03;;
46266;SDS011;31998;48.798;15.066;2023-04-08T04:36:55;54.37;;;26.00;;
46266;SDS011;31998;48.798;15.066;2023-04-08T04:39:21;52.90;;;23.30;;
46266;SDS011;31998;48.798;15.066;2023-04-08T04:41:46;49.67;;;24.90;;
46266;SDS011;31998;48.798;15.066;2023-04-08T04:44:13;55.87;;;23.47;;
46266;SDS011;31998;48.798;15.066;2023-04-08T04:46:38;55.50;;;25.50;;
46266;SDS011;31998;48.798;15.066;2023-04-08T04:49:03;56.07;;;25.67;;
46266;SDS011;31998;48.798;15.066;2023-04-08T04:51:30;61.67;;;25.73;;
46266;SDS011;31998;48.798;15.066;2023-04-08T04:53:55;71.40;;;25.60;;
46266;SDS011;31998;48.798;15.066;2023-04-08T04:56:20;69.90;;;26.23;;
46266;SDS011;31998;48.798;15.066;2023-04-08T04:58:46;59.57;;;24.97;;
46266;SDS011;31998;48.798;15.066;2023-04-08T05:01:11;63.53;;;26.40;;
46266;SDS011;31998;48.798;15.066;2023-04-08T05:03:36;62.87;;;24.93;;
46266;SDS011;31998;48.798;15.066;2023-04-08T05:06:01;47.83;;;24.97;;
46266;SDS011;31998;48.798;15.066;2023-04-08T05:08:27;57.73;;;26.30;;
46266;SDS011;31998;48.798;15.066;2023-04-08T05:10:52;51.90;;;24.00;;
46266;SDS011;31998;48.798;15.066;2023-04-08T05:13:19;68.97;;;25.33;;
46266;SDS011;31998;48.798;15.066;2023-04-08T05:15:44;67.57;;;28.33;;
46266;SDS011;31998;48.798;15.066;2023-04-08T05:18:10;65.40;;;26.60;;
46266;SDS011;31998;48.798;15.066;2023-04-08T05:20:35;60.10;;;23.43;;
46266;SDS011;31998;48.798;15.066;2023-04-08T05:23:00;69.90;;;25.17;;
46266;SDS011;31998;48.798;15.066;2023-04-08T05:25:25;85.00;;;28.20;;
46266;SDS011;31998;48.798;15.066;2023-04-08T05:27:51;92.53;;;34.20;;
46266;SDS011;31998;48.798;15.066;2023-04-08T05:30:16;80.73;;;27.50;;
46266;SDS011;31998;48.798;15.066;2023-04-08T05:32:42;52.57;;;24.90;;
46266;SDS011;31998;48.798;15.066;2023-04-08T05:35:07;93.47;;;33.60;;
46266;SDS011;31998;48.798;15.066;2023-04-08T05:37:33;72.97;;;26.67;;
46266;SDS011;31998;48.798;15.066;2023-04-08T05:39:58;69.57;;;27.90;;
46266;SDS011;31998;48.798;15.066;2023-04-08T05:42:24;65.70;;;26.90;;
46266;SDS011;31998;48.798;15.066;2023-04-08T05:44:49;54.13;;;24.87;;
46266;SDS011;31998;48.798;15.066;2023-04-08T05:47:14;71.63;;;25.63;;
46266;SDS011;31998;48.798;15.066;2023-04-08T05:49:40;57.20;;;23.00;;
46266;SDS011;31998;48.798;15.066;2023-04-08T05:52:05;52.37;;;23.90;;
46266;SDS011;31998;48.798;15.066;2023-04-08T05:54:31;52.93;;;23.13;;
46266;SDS011;31998;48.798;15.066;2023-04-08T05:56:56;66.13;;;23.73;;
46266;SDS011;31998;48.798;15.066;2023-04-08T05:59:21;50.10;;;22.67;;
46266;SDS011;31998;48.798;15.066;2023-04-08T06:01:46;66.43;;;24.63;;
46266;SDS011;31998;48.798;15.066;2023-04-08T06:04:11;69.40;;;25.60;;
46266;SDS011;31998;48.798;15.066;2023-04-08T06:06:37;91.03;;;34.13;;
46266;SDS011;31998;48.798;15.066;2023-04-08T06:09:03;87.20;;;32.87;;
46266;SDS011;31998;48.798;15.066;2023-04-08T06:11:29;99.37;;;37.23;;
46266;SDS011;31998;48.798;15.066;2023-04-08T06:13:54;64.37;;;26.93;;
46266;SDS011;31998;48.798;15.066;2023-04-08T06:16:19;84.37;;;28.20;;
46266;SDS011;31998;48.798;15.066;2023-04-08T06:18:44;88.47;;;27.87;;
46266;SDS011;31998;48.798;15.066;2023-04-08T06:21:10;66.47;;;25.17;;
46266;SDS011;31998;48.798;15.066;2023-04-08T06:23:35;68.57;;;27.90;;
46266;SDS011;31998;48.798;15.066;2023-04-08T06:26:00;81.47;;;26.43;;
46266;SDS011;31998;48.798;15.066;2023-04-08T06:28:27;83.07;;;29.80;;
46266;SDS011;31998;48.798;15.066;2023-04-08T06:30:53;73.87;;;26.30;;
46266;SDS011;31998;48.798;15.066;2023-04-08T06:33:18;74.23;;;26.87;;
46266;SDS011;31998;48.798;15.066;2023-04-08T06:35:43;66.13;;;26.50;;
46266;SDS011;31998;48.798;15.066;2023-04-08T06:38:09;71.37;;;27.97;;
46266;SDS011;31998;48.798;15.066;2023-04-08T06:40:34;82.67;;;30.80;;
46266;SDS011;31998;48.798;15.066;2023-04-08T06:43:05;61.33;;;25.77;;
46266;SDS011;31998;48.798;15.066;2023-04-08T06:45:33;48.40;;;23.10;;
46266;SDS011;31998;48.798;15.066;2023-04-08T06:47:58;58.70;;;22.90;;
46266;SDS011;31998;48.798;15.066;2023-04-08T06:50:24;45.67;;;23.10;;
46266;SDS011;31998;48.798;15.066;2023-04-08T06:52:49;48.40;;;22.30;;
46266;SDS011;31998;48.798;15.066;2023-04-08T06:55:14;49.10;;;21.60;;
46266;SDS011;31998;48.798;15.066;2023-04-08T06:57:40;32.30;;;18.77;;
46266;SDS011;31998;48.798;15.066;2023-04-08T07:00:05;38.00;;;18.37;;
46266;SDS011;31998;48.798;15.066;2023-04-08T07:02:30;30.07;;;17.00;;
46266;SDS011;31998;48.798;15.066;2023-04-08T07:04:56;30.00;;;17.60;;
46266;SDS011;31998;48.798;15.066;2023-04-08T07:07:22;33.97;;;18.00;;
46266;SDS011;31998;48.798;15.066;2023-04-08T07:09:48;24.80;;;15.40;;
46266;SDS011;31998;48.798;15.066;2023-04-08T07:12:13;30.10;;;15.77;;
46266;SDS011;31998;48.798;15.066;2023-04-08T07:14:38;39.93;;;16.00;;
46266;SDS011;31998;48.798;15.066;2023-04-08T07:17:04;21.83;;;15.67;;
46266;SDS011;31998;48.798;15.066;2023-04-08T07:19:29;26.27;;;17.57;;
46266;SDS011;31998;48.798;15.066;2023-04-08T07:21:55;26.33;;;17.60;;
46266;SDS011;31998;48.798;15.066;2023-04-08T07:24:21;29.73;;;19.60;;
46266;SDS011;31998;48.798;15.066;2023-04-08T07:26:47;38.30;;;23.20;;
46266;SDS011;31998;48.798;15.066;2023-04-08T07:29:12;34.13;;;22.67;;
46266;SDS011;31998;48.798;15.066;2023-04-08T07:31:37;35.23;;;24.10;;
46266;SDS011;31998;48.798;15.066;2023-04-08T07:34:02;26.40;;;20.80;;
46266;SDS011;31998;48.798;15.066;2023-04-08T07:36:28;25.80;;;20.07;;
46266;SDS011;31998;48.798;15.066;2023-04-08T07:38:53;34.73;;;23.13;;
46266;SDS011;31998;48.798;15.066;2023-04-08T07:41:18;28.57;;;19.53;;
46266;SDS011;31998;48.798;15.066;2023-04-08T07:43:44;21.37;;;17.03;;
46266;SDS011;31998;48.798;15.066;2023-04-08T07:46:09;21.87;;;16.43;;
46266;SDS011;31998;48.798;15.066;2023-04-08T07:48:34;17.80;;;13.93;;
46266;SDS011;31998;48.798;15.066;2023-04-08T07:51:06;14.43;;;12.70;;
46266;SDS011;31998;48.798;15.066;2023-04-08T07:53:32;15.10;;;12.67;;
46266;SDS011;31998;48.798;15.066;2023-04-08T07:55:58;15.50;;;12.77;;
46266;SDS011;31998;48.798;15.066;2023-04-08T07:58:23;22.97;;;18.30;;
46266;SDS011;31998;48.798;15.066;2023-04-08T08:00:49;17.33;;;14.60;;
46266;SDS011;31998;48.798;15.066;2023-04-08T08:03:14;14.17;;;12.47;;
46266;SDS011;31998;48.798;15.066;2023-04-08T08:05:39;14.47;;;13.03;;
46266;SDS011;31998;48.798;15.066;2023-04-08T08:08:05;13.53;;;12.13;;
46266;SDS011;31998;48.798;15.066;2023-04-08T08:10:31;13.50;;;12.20;;
46266;SDS011;31998;48.798;15.066;2023-04-08T08:12:57;13.53;;;11.97;;
46266;SDS011;31998;48.798;15.066;2023-04-08T08:15:22;13.40;;;12.00;;
46266;SDS011;31998;48.798;15.066;2023-04-08T08:17:47;11.93;;;10.83;;
46266;SDS011;31998;48.798;15.066;2023-04-08T08:20:12;13.53;;;12.20;;
46266;SDS011;31998;48.798;15.066;2023-04-08T08:22:38;12.30;;;11.10;;
46266;SDS011;31998;48.798;15.066;2023-04-08T08:25:03;11.77;;;10.57;;
46266;SDS011;31998;48.798;15.066;2023-04-08T08:27:29;12.97;;;11.67;;
46266;SDS011;31998;48.798;15.066;2023-04-08T08:29:54;12.40;;;11.10;;
46266;SDS011;31998;48.798;15.066;2023-04-08T08:32:21;11.40;;;10.30;;
46266;SDS011;31998;48.798;15.066;2023-04-08T08:34:46;16.83;;;12.73;;
46266;SDS011;31998;48.798;15.066;2023-04-08T08:37:11;15.53;;;12.83;;
46266;SDS011;31998;48.798;15.066;2023-04-08T08:39:36;16.27;;;14.00;;
46266;SDS011;31998;48.798;15.066;2023-04-08T08:42:02;23.70;;;17.53;;
46266;SDS011;31998;48.798;15.066;2023-04-08T08:44:28;27.37;;;17.73;;
46266;SDS011;31998;48.798;15.066;2023-04-08T08:46:54;28.13;;;20.20;;
46266;SDS011;31998;48.798;15.066;2023-04-08T08:49:19;17.63;;;14.10;;
46266;SDS011;31998;48.798;15.066;2023-04-08T08:51:45;20.67;;;14.67;;
46266;SDS011;31998;48.798;15.066;2023-04-08T08:54:11;16.30;;;11.90;;
46266;SDS011;31998;48.798;15.066;2023-04-08T08:56:36;17.03;;;13.27;;
46266;SDS011;31998;48.798;15.066;2023-04-08T08:59:02;16.20;;;13.47;;
46266;SDS011;31998;48.798;15.066;2023-04-08T09:04:17;18.80;;;14.10;;
46266;SDS011;31998;48.798;15.066;2023-04-08T09:06:44;19.07;;;14.63;;
46266;SDS011;31998;48.798;15.066;2023-04-08T09:09:10;19.90;;;14.87;;
46266;SDS011;31998;48.798;15.066;2023-04-08T09:11:36;17.70;;;14.67;;
46266;SDS011;31998;48.798;15.066;2023-04-08T09:14:02;16.07;;;13.77;;
46266;SDS011;31998;48.798;15.066;2023-04-08T09:16:27;21.40;;;15.77;;
46266;SDS011;31998;48.798;15.066;2023-04-08T09:18:55;19.47;;;14.70;;
46266;SDS011;31998;48.798;15.066;2023-04-08T09:21:32;21.67;;;15.43;;
46266;SDS011;31998;48.798;15.066;2023-04-08T09:23:57;19.90;;;13.70;;
46266;SDS011;31998;48.798;15.066;2023-04-08T09:26:23;17.83;;;13.60;;
46266;SDS011;31998;48.798;15.066;2023-04-08T09:28:59;15.93;;;12.57;;
46266;SDS011;31998;48.798;15.066;2023-04-08T09:31:25;19.80;;;12.67;;
46266;SDS011;31998;48.798;15.066;2023-04-08T09:33:52;14.37;;;12.07;;
46266;SDS011;31998;48.798;15.066;2023-04-08T09:36:18;14.97;;;11.17;;
46266;SDS011;31998;48.798;15.066;2023-04-08T09:38:43;13.47;;;11.60;;
46266;SDS011;31998;48.798;15.066;2023-04-08T09:41:09;15.07;;;11.63;;
46266;SDS011;31998;48.798;15.066;2023-04-08T09:43:40;16.30;;;12.33;;
46266;SDS011;31998;48.798;15.066;2023-04-08T09:46:06;13.70;;;11.77;;
46266;SDS011;31998;48.798;15.066;2023-04-08T09:48:36;19.67;;;13.33;;
46266;SDS011;31998;48.798;15.066;2023-04-08T09:51:03;15.70;;;11.77;;
46266;SDS011;31998;48.798;15.066;2023-04-08T09:53:33;18.20;;;13.57;;
46266;SDS011;31998;48.798;15.066;2023-04-08T09:55:58;20.93;;;13.63;;
46266;SDS011;31998;48.798;15.066;2023-04-08T09:58:27;20.27;;;13.80;;
46266;SDS011;31998;48.798;15.066;2023-04-08T10:00:53;19.57;;;12.97;;
46266;SDS011;31998;48.798;15.066;2023-04-08T10:05:43;21.47;;;14.20;;
46266;SDS011;31998;48.798;15.066;2023-04-08T10:08:10;18.23;;;13.77;;
46266;SDS011;31998;48.798;15.066;2023-04-08T10:10:39;25.37;;;16.80;;
46266;SDS011;31998;48.798;15.066;2023-04-08T10:13:05;18.20;;;13.57;;
46266;SDS011;31998;48.798;15.066;2023-04-08T10:15:31;22.70;;;15.10;;
46266;SDS011;31998;48.798;15.066;2023-04-08T10:23:00;21.20;;;13.50;;
46266;SDS011;31998;48.798;15.066;2023-04-08T10:25:35;14.50;;;11.67;;
46266;SDS011;31998;48.798;15.066;2023-04-08T10:28:22;17.17;;;12.33;;
46266;SDS011;31998;48.798;15.066;2023-04-08T10:33:15;17.13;;;12.90;;
46266;SDS011;31998;48.798;15.066;2023-04-08T10:35:42;16.00;;;12.40;;
46266;SDS011;31998;48.798;15.066;2023-04-08T10:38:07;14.97;;;12.00;;
46266;SDS011;31998;48.798;15.066;2023-04-08T10:40:42;13.53;;;11.13;;
46266;SDS011;31998;48.798;15.066;2023-04-08T10:43:08;10.60;;;9.60;;
46266;SDS011;31998;48.798;15.066;2023-04-08T10:45:34;22.53;;;12.33;;
46266;SDS011;31998;48.798;15.066;2023-04-08T10:50:37;10.60;;;9.53;;
46266;SDS011;31998;48.798;15.066;2023-04-08T10:53:02;10.40;;;9.40;;
46266;SDS011;31998;48.798;15.066;2023-04-08T10:55:28;11.77;;;10.23;;
46266;SDS011;31998;48.798;15.066;2023-04-08T10:57:55;15.87;;;10.67;;
46266;SDS011;31998;48.798;15.066;2023-04-08T11:03:00;17.10;;;14.40;;
46266;SDS011;31998;48.798;15.066;2023-04-08T11:05:26;23.03;;;15.80;;
46266;SDS011;31998;48.798;15.066;2023-04-08T11:07:51;29.20;;;19.37;;
46266;SDS011;31998;48.798;15.066;2023-04-08T11:10:17;28.70;;;18.10;;
46266;SDS011;31998;48.798;15.066;2023-04-08T11:12:42;25.73;;;17.37;;
46266;SDS011;31998;48.798;15.066;2023-04-08T11:15:08;26.00;;;17.93;;
46266;SDS011;31998;48.798;15.066;2023-04-08T11:17:33;29.93;;;18.23;;
46266;SDS011;31998;48.798;15.066;2023-04-08T11:19:59;37.83;;;21.47;;
46266;SDS011;31998;48.798;15.066;2023-04-08T11:22:27;37.90;;;20.20;;
46266;SDS011;31998;48.798;15.066;2023-04-08T11:24:52;37.53;;;22.13;;
46266;SDS011;31998;48.798;15.066;2023-04-08T11:27:18;26.70;;;18.00;;
46266;SDS011;31998;48.798;15.066;2023-04-08T11:29:43;36.40;;;20.30;;
46266;SDS011;31998;48.798;15.066;2023-04-08T11:32:08;31.60;;;20.33;;
46266;SDS011;31998;48.798;15.066;2023-04-08T11:34:37;35.53;;;20.10;;
46266;SDS011;31998;48.798;15.066;2023-04-08T11:37:02;31.33;;;17.70;;
46266;SDS011;31998;48.798;15.066;2023-04-08T11:39:28;34.57;;;20.40;;
46266;SDS011;31998;48.798;15.066;2023-04-08T11:41:53;35.17;;;19.93;;
46266;SDS011;31998;48.798;15.066;2023-04-08T11:44:19;34.23;;;19.37;;
46266;SDS011;31998;48.798;15.066;2023-04-08T11:46:53;30.30;;;19.53;;
46266;SDS011;31998;48.798;15.066;2023-04-08T11:49:19;32.90;;;17.60;;
46266;SDS011;31998;48.798;15.066;2023-04-08T11:51:54;28.20;;;18.80;;
46266;SDS011;31998;48.798;15.066;2023-04-08T11:54:30;29.60;;;17.73;;
46266;SDS011;31998;48.798;15.066;2023-04-08T11:56:56;31.47;;;20.40;;
46266;SDS011;31998;48.798;15.066;2023-04-08T11:59:22;33.63;;;19.30;;
46266;SDS011;31998;48.798;15.066;2023-04-08T12:01:47;29.00;;;18.47;;
46266;SDS011;31998;48.798;15.066;2023-04-08T12:04:13;31.60;;;18.73;;
46266;SDS011;31998;48.798;15.066;2023-04-08T12:06:38;34.97;;;19.70;;
46266;SDS011;31998;48.798;15.066;2023-04-08T12:09:03;36.20;;;20.80;;
46266;SDS011;31998;48.798;15.066;2023-04-08T12:11:28;37.10;;;21.50;;
46266;SDS011;31998;48.798;15.066;2023-04-08T12:13:53;32.00;;;20.67;;
46266;SDS011;31998;48.798;15.066;2023-04-08T12:16:19;32.60;;;20.87;;
46266;SDS011;31998;48.798;15.066;2023-04-08T12:18:44;30.93;;;17.97;;
46266;SDS011;31998;48.798;15.066;2023-04-08T12:21:10;34.63;;;18.40;;
46266;SDS011;31998;48.798;15.066;2023-04-08T12:23:36;37.03;;;20.53;;
46266;SDS011;31998;48.798;15.066;2023-04-08T12:26:01;26.33;;;17.23;;
46266;SDS011;31998;48.798;15.066;2023-04-08T12:28:26;34.27;;;19.80;;
46266;SDS011;31998;48.798;15.066;2023-04-08T12:30:51;38.63;;;19.50;;
46266;SDS011;31998;48.798;15.066;2023-04-08T12:33:17;40.27;;;20.17;;
46266;SDS011;31998;48.798;15.066;2023-04-08T12:35:42;30.00;;;18.93;;
46266;SDS011;31998;48.798;15.066;2023-04-08T12:38:08;28.07;;;16.83;;
46266;SDS011;31998;48.798;15.066;2023-04-08T12:40:34;29.23;;;17.20;;
46266;SDS011;31998;48.798;15.066;2023-04-08T12:42:59;32.30;;;18.30;;
46266;SDS011;31998;48.798;15.066;2023-04-08T12:45:24;30.23;;;17.57;;
46266;SDS011;31998;48.798;15.066;2023-04-08T12:47:49;26.43;;;16.23;;
46266;SDS011;31998;48.798;15.066;2023-04-08T12:50:15;26.90;;;16.97;;
46266;SDS011;31998;48.798;15.066;2023-04-08T12:52:40;23.93;;;16.63;;
46266;SDS011;31998;48.798;15.066;2023-04-08T12:55:06;27.00;;;16.20;;
46266;SDS011;31998;48.798;15.066;2023-04-08T12:57:31;26.43;;;16.90;;
46266;SDS011;31998;48.798;15.066;2023-04-08T12:59:57;32.60;;;18.20;;
46266;SDS011;31998;48.798;15.066;2023-04-08T13:02:22;33.77;;;17.80;;
46266;SDS011;31998;48.798;15.066;2023-04-08T13:04:49;23.77;;;15.83;;
46266;SDS011;31998;48.798;15.066;2023-04-08T13:07:16;32.27;;;17.80;;
46266;SDS011;31998;48.798;15.066;2023-04-08T13:09:41;27.27;;;16.07;;
46266;SDS011;31998;48.798;15.066;2023-04-08T13:12:06;26.30;;;15.07;;
46266;SDS011;31998;48.798;15.066;2023-04-08T13:14:31;28.40;;;16.60;;
46266;SDS011;31998;48.798;15.066;2023-04-08T13:16:57;31.23;;;18.20;;
46266;SDS011;31998;48.798;15.066;2023-04-08T13:19:22;33.60;;;19.00;;
46266;SDS011;31998;48.798;15.066;2023-04-08T13:21:47;30.73;;;16.20;;
46266;SDS011;31998;48.798;15.066;2023-04-08T13:24:12;34.63;;;17.57;;
46266;SDS011;31998;48.798;15.066;2023-04-08T13:26:38;31.50;;;18.00;;
46266;SDS011;31998;48.798;15.066;2023-04-08T13:29:03;33.93;;;17.80;;
46266;SDS011;31998;48.798;15.066;2023-04-08T13:31:28;30.47;;;17.73;;
46266;SDS011;31998;48.798;15.066;2023-04-08T13:33:53;32.90;;;18.50;;
46266;SDS011;31998;48.798;15.066;2023-04-08T13:36:18;35.67;;;18.10;;
46266;SDS011;31998;48.798;15.066;2023-04-08T13:38:44;35.70;;;18.80;;
46266;SDS011;31998;48.798;15.066;2023-04-08T13:41:10;36.70;;;19.73;;
46266;SDS011;31998;48.798;15.066;2023-04-08T13:43:35;36.20;;;20.27;;
46266;SDS011;31998;48.798;15.066;2023-04-08T13:46:00;44.13;;;19.90;;
46266;SDS011;31998;48.798;15.066;2023-04-08T13:48:26;34.57;;;17.03;;
46266;SDS011;31998;48.798;15.066;2023-04-08T13:50:51;41.10;;;18.57;;
46266;SDS011;31998;48.798;15.066;2023-04-08T13:53:16;42.90;;;19.03;;
46266;SDS011;31998;48.798;15.066;2023-04-08T13:55:42;31.20;;;19.53;;
46266;SDS011;31998;48.798;15.066;2023-04-08T13:58:07;38.60;;;18.67;;
46266;SDS011;31998;48.798;15.066;2023-04-08T14:00:32;35.60;;;18.60;;
46266;SDS011;31998;48.798;15.066;2023-04-08T14:02:57;32.23;;;17.50;;
46266;SDS011;31998;48.798;15.066;2023-04-08T14:05:23;29.73;;;17.73;;
46266;SDS011;31998;48.798;15.066;2023-04-08T14:07:48;32.20;;;17.00;;
46266;SDS011;31998;48.798;15.066;2023-04-08T14:10:13;30.23;;;17.23;;
46266;SDS011;31998;48.798;15.066;2023-04-08T14:12:39;27.07;;;16.03;;
46266;SDS011;31998;48.798;15.066;2023-04-08T14:15:05;34.00;;;18.20;;
46266;SDS011;31998;48.798;15.066;2023-04-08T14:17:30;27.80;;;18.17;;
46266;SDS011;31998;48.798;15.066;2023-04-08T14:19:56;29.83;;;17.00;;
46266;SDS011;31998;48.798;15.066;2023-04-08T14:22:21;28.10;;;16.47;;
46266;SDS011;31998;48.798;15.066;2023-04-08T14:24:46;25.67;;;17.20;;